Time;durP1;ratioP1;P1;durP2;ratioP2;P2;SDS_P1;SDS_P2;PMS_P1;PMS_P2;Temp;Humidity;BMP_temperature;BMP_pressure;BME280_temperature;BME280_humidity;BME280_pressure;Samples;Min_cycle;Max_cycle;Signal;HPM_P1;HPM_P2
2023/05/18 00:00:15;;;;;;;10.68;4.25;;;;;;;7.12;73.83;103092.31;6093103;19;20508;-73
2023/05/18 00:02:25;;;;;;;9.38;3.40;;;;;;;7.11;73.73;103093.19;6099415;19;20015;-72
2023/05/18 00:04:33;;;;;;;8.27;3.92;;;;;;;7.10;73.97;103095.75;6097770;19;20053;-73
2023/05/18 00:06:41;;;;;;;11.48;4.18;;;;;;;7.06;74.06;103096.59;6099152;19;20034;-72
2023/05/18 00:08:47;;;;;;;10.15;4.15;;;;;;;7.02;73.90;103099.16;6098995;19;20665;-72
2023/05/18 00:10:55;;;;;;;9.35;3.65;;;;;;;7.03;73.98;103100.06;6095804;19;20800;-74
2023/05/18 00:13:00;;;;;;;9.73;4.20;;;;;;;7.01;74.48;103099.16;6098043;19;19999;-73
2023/05/18 00:15:09;;;;;;;13.20;4.25;;;;;;;6.99;74.71;103101.75;6097299;19;20550;-72
2023/05/18 00:17:15;;;;;;;9.82;3.92;;;;;;;6.99;74.47;103099.13;6100697;19;20361;-74
2023/05/18 00:19:24;;;;;;;10.50;4.55;;;;;;;6.98;74.83;103104.38;6097991;19;20002;-73
2023/05/18 00:21:32;;;;;;;11.60;4.25;;;;;;;6.98;74.54;103104.38;6093677;19;20461;-74
2023/05/18 00:23:38;;;;;;;8.43;4.10;;;;;;;6.91;74.83;103113.88;6100171;19;20002;-74
2023/05/18 00:25:44;;;;;;;12.73;4.78;;;;;;;6.89;74.93;103097.28;6099639;19;20474;-74
2023/05/18 00:27:50;;;;;;;11.88;4.20;;;;;;;6.91;75.02;103106.03;6102880;19;20006;-74
2023/05/18 00:29:55;;;;;;;14.55;4.53;;;;;;;6.90;75.21;103109.50;6097041;19;20011;-73
2023/05/18 00:32:03;;;;;;;9.70;4.57;;;;;;;6.89;75.32;103112.09;6095366;19;20010;-73
2023/05/18 00:34:09;;;;;;;10.45;4.70;;;;;;;6.84;75.25;103112.03;6099743;19;20024;-73
2023/05/18 00:36:15;;;;;;;10.95;4.45;;;;;;;6.84;75.23;103106.81;6095922;19;20034;-75
2023/05/18 00:38:23;;;;;;;15.32;4.97;;;;;;;6.85;75.51;103116.44;6097217;19;20077;-74
2023/05/18 00:40:30;;;;;;;9.02;4.28;;;;;;;6.83;75.01;103110.28;6097501;19;20010;-74
2023/05/18 00:42:35;;;;;;;13.35;4.85;;;;;;;6.77;75.72;103108.50;6100116;19;20494;-74
2023/05/18 00:44:41;;;;;;;13.13;4.88;;;;;;;6.79;75.75;103104.16;6098523;19;20010;-74
2023/05/18 00:46:46;;;;;;;10.80;4.80;;;;;;;6.81;75.89;103104.16;6092685;19;20006;-74
2023/05/18 00:48:55;;;;;;;10.85;4.47;;;;;;;6.84;75.69;103098.09;6075596;19;20317;-74
2023/05/18 00:51:01;;;;;;;16.08;5.10;;;;;;;6.77;75.54;103107.63;6092432;19;20490;-74
2023/05/18 00:53:06;;;;;;;9.93;4.40;;;;;;;6.75;75.73;103101.50;6084294;19;20724;-73
2023/05/18 00:55:15;;;;;;;9.80;5.45;;;;;;;6.73;76.03;103100.59;6094021;19;20013;-74
2023/05/18 00:57:23;;;;;;;11.75;4.43;;;;;;;6.73;76.13;103103.19;6095641;19;20014;-74
2023/05/18 00:59:28;;;;;;;11.20;4.75;;;;;;;6.72;76.43;103101.47;6095288;19;20007;-74
2023/05/18 01:01:42;;;;;;;12.55;5.07;;;;;;;6.73;76.39;103104.06;6098161;19;20583;-73
2023/05/18 01:03:47;;;;;;;12.02;5.40;;;;;;;6.72;76.42;103104.06;6098721;19;20022;-73
2023/05/18 01:05:56;;;;;;;9.25;4.28;;;;;;;6.72;76.95;103106.69;6099455;19;20438;-73
2023/05/18 01:08:02;;;;;;;11.68;4.95;;;;;;;6.69;76.70;103107.53;6093223;19;20039;-73
2023/05/18 01:10:08;;;;;;;12.30;5.13;;;;;;;6.66;76.33;103102.28;6097551;19;20779;-73
2023/05/18 01:12:22;;;;;;;14.02;5.03;;;;;;;6.65;76.53;103108.34;6090181;19;20010;-72
2023/05/18 01:14:36;;;;;;;11.52;4.75;;;;;;;6.63;76.59;103107.44;6094228;19;20002;-73
2023/05/18 01:16:47;;;;;;;9.70;4.43;;;;;;;6.63;76.96;103111.78;6095650;19;20387;-73
2023/05/18 01:19:02;;;;;;;14.38;5.50;;;;;;;6.62;77.28;103110.91;6091535;19;20027;-73
2023/05/18 01:21:24;;;;;;;13.00;5.22;;;;;;;6.62;77.14;103116.13;6098576;19;20329;-73
2023/05/18 01:24:06;;;;;;;14.18;5.25;;;;;;;6.62;77.08;103120.50;6099634;19;20082;-73
2023/05/18 01:26:28;;;;;;;10.75;4.88;;;;;;;6.60;77.30;103107.41;6095397;19;20787;-72
2023/05/18 01:28:35;;;;;;;13.00;5.07;;;;;;;6.61;77.86;103117.00;6096807;19;20022;-72
2023/05/18 01:30:43;;;;;;;12.68;5.30;;;;;;;6.59;77.34;103106.53;6093948;19;20327;-72
2023/05/18 01:32:48;;;;;;;10.38;4.43;;;;;;;6.61;77.30;103114.41;6088028;19;20011;-73
2023/05/18 01:34:54;;;;;;;9.52;4.60;;;;;;;6.59;77.78;103113.50;6096397;19;20331;-72
2023/05/18 01:37:00;;;;;;;11.90;4.93;;;;;;;6.58;77.57;103103.88;6093958;19;20038;-72
2023/05/18 01:39:06;;;;;;;9.90;4.55;;;;;;;6.58;77.82;103103.88;6095440;19;20066;-73
2023/05/18 01:41:18;;;;;;;11.82;4.75;;;;;;;6.58;77.43;103109.09;6093691;19;20038;-73
2023/05/18 01:43:31;;;;;;;10.47;4.67;;;;;;;6.57;78.09;103110.84;6094622;19;20010;-72
2023/05/18 01:45:39;;;;;;;11.77;4.90;;;;;;;6.55;77.18;103109.94;6095065;19;20290;-72
2023/05/18 01:47:48;;;;;;;11.68;4.38;;;;;;;6.52;77.62;103112.53;6095191;19;20050;-73
2023/05/18 01:49:58;;;;;;;9.85;4.30;;;;;;;6.52;77.70;103111.66;6097021;19;20247;-73
2023/05/18 01:52:08;;;;;;;9.60;4.53;;;;;;;6.51;77.95;103116.00;6094816;19;20010;-73
2023/05/18 01:54:17;;;;;;;12.75;4.88;;;;;;;6.53;77.89;103116.00;6090545;19;20023;-72
2023/05/18 01:56:23;;;;;;;15.98;4.28;;;;;;;6.52;78.02;103112.53;6092606;19;20483;-73
2023/05/18 01:58:32;;;;;;;12.13;4.57;;;;;;;6.50;77.95;103106.44;6092432;19;20006;-73
2023/05/18 02:00:38;;;;;;;17.92;6.18;;;;;;;6.51;77.93;103117.75;6097109;19;20031;-73
2023/05/18 02:02:44;;;;;;;10.00;4.38;;;;;;;6.50;77.70;103114.25;6090025;19;20074;-73
2023/05/18 02:04:53;;;;;;;8.95;3.92;;;;;;;6.48;78.37;103115.09;6093678;19;20623;-72
2023/05/18 02:06:58;;;;;;;10.13;3.85;;;;;;;6.43;78.01;103099.38;6092655;19;20006;-73
2023/05/18 02:09:04;;;;;;;9.80;4.75;;;;;;;6.44;77.94;103111.56;6092198;19;20015;-72
2023/05/18 02:11:09;;;;;;;11.43;4.38;;;;;;;6.44;78.12;103113.28;6095365;19;20358;-72
2023/05/18 02:13:15;;;;;;;7.90;3.83;;;;;;;6.43;77.91;103109.81;6090541;19;20030;-72
2023/05/18 02:15:22;;;;;;;8.23;3.45;;;;;;;6.39;77.64;103115.84;6093676;19;20093;-72
2023/05/18 02:17:28;;;;;;;9.77;3.85;;;;;;;6.38;78.26;103114.09;6088761;19;20047;-72
2023/05/18 02:19:36;;;;;;;8.35;3.83;;;;;;;6.36;77.85;103114.06;6091675;19;20637;-72
2023/05/18 02:21:42;;;;;;;11.32;4.35;;;;;;;6.32;78.63;103108.78;6095281;19;20011;-72
2023/05/18 02:23:47;;;;;;;10.98;4.25;;;;;;;6.28;78.37;103115.69;6092414;19;20458;-73
2023/05/18 02:25:54;;;;;;;6.95;3.53;;;;;;;6.22;77.93;103117.34;6095554;19;20019;-72
2023/05/18 02:28:02;;;;;;;10.30;4.03;;;;;;;6.11;78.92;103112.84;6092488;19;20016;-74
2023/05/18 02:30:09;;;;;;;14.27;4.25;;;;;;;6.13;79.03;103115.47;6088291;19;20074;-72
2023/05/18 02:32:22;;;;;;;10.38;4.70;;;;;;;6.07;78.23;103105.81;6090040;19;20010;-72
2023/05/18 02:34:31;;;;;;;6.88;3.75;;;;;;;6.05;78.94;103112.75;6089947;19;20010;-72
2023/05/18 02:36:38;;;;;;;9.32;3.80;;;;;;;6.03;78.50;103109.25;6087912;19;20573;-72
2023/05/18 02:38:45;;;;;;;8.75;3.80;;;;;;;6.00;78.51;103114.41;6084062;19;20003;-71
2023/05/18 02:40:52;;;;;;;10.52;4.32;;;;;;;5.99;78.60;103112.66;6091500;19;20115;-72
2023/05/18 02:42:58;;;;;;;11.43;4.55;;;;;;;6.00;79.06;103106.56;6092356;19;20017;-72
2023/05/18 02:45:03;;;;;;;8.80;3.92;;;;;;;5.97;78.87;103109.13;6090025;19;20047;-72
2023/05/18 02:47:09;;;;;;;8.45;3.67;;;;;;;5.99;79.12;103107.44;6091969;19;20047;-72
2023/05/18 02:49:18;;;;;;;13.35;4.30;;;;;;;5.97;79.63;103103.06;6090994;19;20439;-72
2023/05/18 02:51:23;;;;;;;9.40;4.28;;;;;;;5.97;78.98;103100.44;6093082;19;20018;-72
2023/05/18 02:53:28;;;;;;;10.75;3.97;;;;;;;5.94;79.54;103101.28;6084657;19;20057;-73
2023/05/18 02:55:33;;;;;;;11.45;4.05;;;;;;;5.92;78.96;103108.16;6091872;19;20726;-73
2023/05/18 02:57:42;;;;;;;8.75;3.67;;;;;;;5.89;79.30;103102.91;6090682;19;20003;-73
2023/05/18 02:59:47;;;;;;;7.88;4.30;;;;;;;5.88;79.50;103106.38;6092051;19;23889;-72
2023/05/18 03:01:52;;;;;;;10.02;3.92;;;;;;;5.87;79.01;103107.22;6092508;19;20017;-72
2023/05/18 03:03:59;;;;;;;9.38;3.67;;;;;;;5.85;79.49;103104.59;6092523;19;20103;-72
2023/05/18 03:06:07;;;;;;;9.32;3.97;;;;;;;5.81;79.27;103108.00;6094951;19;20438;-72
2023/05/18 03:08:14;;;;;;;9.02;3.95;;;;;;;5.83;80.01;103105.41;6094859;19;20956;-72
2023/05/18 03:10:20;;;;;;;8.48;3.55;;;;;;;5.83;79.46;103105.41;6094247;19;20471;-73
2023/05/18 03:12:28;;;;;;;8.73;3.90;;;;;;;5.80;79.62;103108.00;6093693;19;20010;-73
2023/05/18 03:14:33;;;;;;;11.95;4.55;;;;;;;5.85;79.98;103108.94;6090749;19;20050;-72
2023/05/18 03:16:38;;;;;;;10.65;3.70;;;;;;;5.87;79.54;103104.59;6090846;19;20027;-73
2023/05/18 03:18:44;;;;;;;9.77;4.00;;;;;;;5.84;79.54;103110.66;6079199;19;20363;-72
2023/05/18 03:20:51;;;;;;;10.80;4.40;;;;;;;5.86;79.48;103111.56;6090891;19;20007;-72
2023/05/18 03:22:59;;;;;;;7.88;3.50;;;;;;;5.85;79.70;103106.34;6089821;19;20578;-73
2023/05/18 03:25:04;;;;;;;8.68;4.53;;;;;;;5.84;79.70;103109.78;6093430;19;20247;-72
2023/05/18 03:27:11;;;;;;;6.28;3.50;;;;;;;5.84;79.46;103105.44;6093678;19;20445;-73
2023/05/18 03:29:17;;;;;;;10.48;4.28;;;;;;;5.84;79.72;103113.25;6089649;19;20086;-72
2023/05/18 03:31:26;;;;;;;9.65;4.35;;;;;;;5.84;79.60;103104.56;6091011;19;20026;-73
2023/05/18 03:33:33;;;;;;;8.50;4.07;;;;;;;5.85;79.64;103103.72;6090601;19;20010;-72
2023/05/18 03:35:39;;;;;;;10.63;3.70;;;;;;;5.87;79.67;103104.59;6092514;19;20011;-72
2023/05/18 03:37:45;;;;;;;8.27;4.10;;;;;;;5.87;79.91;103113.34;6091317;19;20010;-73
2023/05/18 03:39:52;;;;;;;9.45;3.55;;;;;;;5.90;79.39;103109.91;6088298;19;20110;-72
2023/05/18 03:42:01;;;;;;;13.68;4.57;;;;;;;5.91;79.56;103114.25;6090300;19;20077;-72
2023/05/18 03:44:06;;;;;;;14.68;4.40;;;;;;;5.98;79.21;103116.13;6091668;19;19999;-72
2023/05/18 03:46:11;;;;;;;10.68;4.18;;;;;;;6.00;79.34;103108.31;6090955;19;20070;-72
2023/05/18 03:48:16;;;;;;;10.02;3.90;;;;;;;6.00;79.31;103105.69;6092270;19;20011;-73
2023/05/18 03:50:27;;;;;;;13.63;4.43;;;;;;;6.00;78.88;103114.41;6086461;19;20448;-73
2023/05/18 03:52:33;;;;;;;8.68;3.75;;;;;;;6.01;78.88;103115.31;6086743;19;20007;-73
2023/05/18 03:54:41;;;;;;;9.50;3.53;;;;;;;6.01;78.94;103112.69;6090992;19;20010;-73
2023/05/18 03:56:49;;;;;;;9.07;3.75;;;;;;;6.01;78.87;103112.69;6091202;19;20033;-72
2023/05/18 03:58:57;;;;;;;8.38;3.97;;;;;;;6.02;79.00;103104.88;6094688;19;19998;-73
2023/05/18 04:01:02;;;;;;;9.85;4.13;;;;;;;6.05;78.29;103117.97;6091714;19;21310;-73
2023/05/18 04:03:11;;;;;;;9.48;3.72;;;;;;;6.06;78.58;103109.28;6094853;19;20025;-73
2023/05/18 04:05:17;;;;;;;10.07;4.10;;;;;;;6.11;78.15;103110.25;6092009;19;20018;-73
2023/05/18 04:07:26;;;;;;;10.23;4.20;;;;;;;6.17;78.41;103114.66;6090593;19;20006;-73
2023/05/18 04:09:31;;;;;;;12.25;4.05;;;;;;;6.19;78.02;103114.66;6092911;19;20014;-73
2023/05/18 04:11:36;;;;;;;8.07;3.22;;;;;;;6.23;77.63;103116.47;6094041;19;20007;-73
2023/05/18 04:13:46;;;;;;;9.20;4.00;;;;;;;6.27;77.25;103118.28;6090839;19;20010;-73
2023/05/18 04:15:56;;;;;;;13.40;3.78;;;;;;;6.27;76.96;103121.78;6091420;19;20074;-73
2023/05/18 04:18:05;;;;;;;9.00;3.50;;;;;;;6.25;76.59;103114.78;6088324;19;20002;-73
2023/05/18 04:20:13;;;;;;;7.68;3.75;;;;;;;6.22;76.78;103122.56;6089943;19;20400;-73
2023/05/18 04:22:20;;;;;;;11.85;3.95;;;;;;;6.22;76.71;103119.97;6092304;19;20018;-73
2023/05/18 04:24:25;;;;;;;9.23;3.15;;;;;;;6.25;76.66;103117.38;6092639;19;20034;-72
2023/05/18 04:26:31;;;;;;;11.20;4.22;;;;;;;6.27;76.56;103118.28;6086975;19;20070;-73
2023/05/18 04:28:37;;;;;;;9.98;3.42;;;;;;;6.27;76.83;103123.53;6087787;19;20003;-72
2023/05/18 04:30:44;;;;;;;9.93;4.00;;;;;;;6.34;76.79;103120.13;6094167;19;20006;-72
2023/05/18 04:32:49;;;;;;;11.82;3.50;;;;;;;6.36;76.93;103121.03;6096174;19;20014;-73
2023/05/18 04:35:00;;;;;;;6.70;3.60;;;;;;;6.42;76.63;103126.31;6095182;19;20031;-72
2023/05/18 04:37:06;;;;;;;6.35;3.15;;;;;;;6.48;76.50;103122.94;6092759;19;20047;-73
2023/05/18 04:39:12;;;;;;;7.97;3.75;;;;;;;6.43;76.31;103129.84;6099619;19;20715;-72
2023/05/18 04:41:21;;;;;;;9.75;3.72;;;;;;;6.44;76.25;103129.84;6095397;19;20667;-73
2023/05/18 04:43:27;;;;;;;8.52;3.50;;;;;;;6.44;76.33;103132.44;6098893;19;20625;-73
2023/05/18 04:45:32;;;;;;;8.07;3.40;;;;;;;6.49;76.36;103138.59;6096704;19;20006;-72
2023/05/18 04:47:41;;;;;;;9.38;3.67;;;;;;;6.54;76.38;103134.31;6095696;19;20042;-73
2023/05/18 04:49:47;;;;;;;8.38;3.45;;;;;;;6.62;76.19;103133.56;6095677;19;20085;-73
2023/05/18 04:51:55;;;;;;;8.45;3.88;;;;;;;6.63;76.03;103140.53;6097376;19;19999;-73
2023/05/18 04:54:00;;;;;;;9.77;3.80;;;;;;;6.70;76.10;103143.25;6087104;19;20014;-73
2023/05/18 04:56:06;;;;;;;8.68;3.30;;;;;;;6.72;75.56;103146.75;6095486;19;20003;-73
2023/05/18 04:58:12;;;;;;;8.38;3.80;;;;;;;6.79;75.80;103140.75;6095314;19;20594;-72
2023/05/18 05:00:19;;;;;;;10.23;4.03;;;;;;;6.88;75.52;103139.97;6097598;19;20105;-71
2023/05/18 05:02:26;;;;;;;13.25;4.80;;;;;;;6.92;75.73;103143.50;6095937;19;20395;-72
2023/05/18 05:04:33;;;;;;;12.13;3.88;;;;;;;6.96;75.11;103146.16;6095855;19;20086;-72
2023/05/18 05:06:41;;;;;;;8.07;3.78;;;;;;;7.01;75.24;103144.47;6095983;19;20056;-72
2023/05/18 05:08:47;;;;;;;11.32;3.95;;;;;;;7.08;74.45;103147.16;6091465;19;20009;-72
2023/05/18 05:10:52;;;;;;;10.65;4.50;;;;;;;7.22;74.03;103141.22;6097893;19;20078;-72
2023/05/18 05:12:59;;;;;;;8.23;3.65;;;;;;;7.39;73.86;103136.16;6091591;19;20183;-72
2023/05/18 05:15:04;;;;;;;11.77;4.32;;;;;;;7.67;73.10;103139.03;6095610;19;20236;-71
2023/05/18 05:17:11;;;;;;;7.82;3.67;;;;;;;7.74;72.45;103146.09;6093460;19;20023;-73
2023/05/18 05:19:17;;;;;;;8.68;3.88;;;;;;;7.97;71.92;103146.25;6093887;19;20030;-72
2023/05/18 05:21:31;;;;;;;9.38;3.83;;;;;;;8.12;70.95;103150.72;6097874;19;20007;-72
2023/05/18 05:23:38;;;;;;;10.38;3.13;;;;;;;8.29;69.98;103141.25;6094562;19;20059;-72
2023/05/18 05:25:44;;;;;;;8.00;3.65;;;;;;;8.32;69.83;103138.63;6095554;19;20029;-73
2023/05/18 05:27:49;;;;;;;8.02;4.13;;;;;;;8.54;69.48;103136.16;6094435;19;20010;-72
2023/05/18 05:29:55;;;;;;;14.63;4.43;;;;;;;8.71;68.92;103142.34;6092140;19;20007;-72
2023/05/18 05:32:00;;;;;;;7.35;3.55;;;;;;;8.82;68.30;103146.75;6096708;19;20010;-72
2023/05/18 05:34:05;;;;;;;6.63;3.20;;;;;;;9.03;68.05;103138.97;6093858;19;20043;-72
2023/05/18 05:36:11;;;;;;;11.68;3.90;;;;;;;9.09;66.75;103146.84;6098129;19;20563;-72
2023/05/18 05:38:19;;;;;;;9.38;3.55;;;;;;;9.15;66.48;103136.38;6095323;19;20546;-72
2023/05/18 05:40:26;;;;;;;9.13;3.63;;;;;;;9.35;66.53;103135.53;6093549;19;20039;-73
2023/05/18 05:42:34;;;;;;;8.38;3.50;;;;;;;9.39;65.70;103151.28;6094495;19;20448;-72
2023/05/18 05:44:42;;;;;;;8.80;3.45;;;;;;;9.37;65.68;103139.03;6092909;19;20007;-70
2023/05/18 05:46:48;;;;;;;10.43;3.95;;;;;;;9.56;65.06;103138.19;6090634;19;20033;-72
2023/05/18 05:48:54;;;;;;;9.13;3.85;;;;;;;9.62;64.44;103143.44;6094529;19;20383;-72
2023/05/18 05:50:59;;;;;;;11.20;3.35;;;;;;;9.74;63.90;103142.56;6093483;19;20759;-71
2023/05/18 05:53:04;;;;;;;11.23;3.60;;;;;;;9.58;63.87;103139.03;6089016;19;20106;-72
2023/05/18 05:55:11;;;;;;;9.85;3.80;;;;;;;9.66;63.84;103131.16;6096820;19;20111;-72
2023/05/18 05:57:17;;;;;;;7.85;3.58;;;;;;;9.64;63.29;103146.94;6096823;19;20078;-71
2023/05/18 05:59:22;;;;;;;6.30;3.05;;;;;;;9.73;63.57;103139.94;6093994;19;20007;-72
2023/05/18 06:01:29;;;;;;;8.23;3.53;;;;;;;9.84;63.33;103152.16;6096450;19;20375;-70
2023/05/18 06:03:34;;;;;;;9.35;3.50;;;;;;;9.93;62.95;103153.06;6096364;19;20853;-72
2023/05/18 06:05:41;;;;;;;12.55;3.70;;;;;;;10.08;62.44;103150.41;6096671;19;20304;-72
2023/05/18 06:07:46;;;;;;;10.55;3.42;;;;;;;10.31;62.13;103147.78;6096085;19;20006;-72
2023/05/18 06:09:54;;;;;;;15.35;5.05;;;;;;;10.50;61.13;103152.09;6095034;19;20002;-73
2023/05/18 06:12:06;;;;;;;9.55;3.40;;;;;;;10.46;60.82;103158.25;6094344;19;20077;-72
2023/05/18 06:14:11;;;;;;;8.00;3.80;;;;;;;10.33;60.66;103156.53;6095792;19;20015;-72
2023/05/18 06:16:16;;;;;;;11.35;3.70;;;;;;;10.08;60.94;103163.53;6093199;19;20007;-73
2023/05/18 06:18:22;;;;;;;10.93;3.80;;;;;;;10.13;60.29;103159.16;6091350;19;20006;-73
2023/05/18 06:20:29;;;;;;;11.77;3.42;;;;;;;10.59;60.93;103163.47;6091566;19;20412;-73
2023/05/18 06:22:35;;;;;;;8.40;3.63;;;;;;;10.85;59.98;103158.09;6096241;19;20029;-73
2023/05/18 06:24:40;;;;;;;6.57;3.13;;;;;;;10.94;59.04;103158.94;6090392;19;20011;-74
2023/05/18 06:26:46;;;;;;;8.88;3.72;;;;;;;11.02;59.38;103163.28;6087674;19;20499;-73
2023/05/18 06:28:57;;;;;;;13.55;4.18;;;;;;;11.07;59.21;103164.16;6093522;19;20500;-73
2023/05/18 06:31:03;;;;;;;11.80;3.50;;;;;;;10.86;59.27;103173.88;6093760;19;20018;-73
2023/05/18 06:33:09;;;;;;;8.75;3.38;;;;;;;10.73;59.35;103174.81;6092802;19;20723;-73
2023/05/18 06:35:15;;;;;;;7.88;3.70;;;;;;;10.70;59.41;103177.47;6090761;19;20013;-73
2023/05/18 06:37:20;;;;;;;9.88;3.97;;;;;;;10.93;58.59;103172.97;6092002;19;20360;-72
2023/05/18 06:39:25;;;;;;;9.52;3.70;;;;;;;11.31;58.00;103171.88;6094850;19;20003;-72
2023/05/18 06:41:34;;;;;;;10.25;4.93;;;;;;;11.46;57.33;103180.59;6096754;19;20574;-73
2023/05/18 06:43:41;;;;;;;9.85;3.22;;;;;;;11.61;56.33;103176.09;6094698;19;20011;-73
2023/05/18 06:45:50;;;;;;;11.68;3.50;;;;;;;11.74;55.62;103183.88;6092860;19;20015;-74
2023/05/18 06:47:55;;;;;;;10.02;3.38;;;;;;;12.00;56.03;103170.53;6098736;19;20024;-73
2023/05/18 06:50:00;;;;;;;8.55;3.17;;;;;;;12.22;55.52;103177.34;6092138;19;19999;-74
2023/05/18 06:52:07;;;;;;;7.28;3.83;;;;;;;12.15;55.53;103170.38;6093247;19;20526;-73
2023/05/18 06:54:12;;;;;;;13.20;4.25;;;;;;;12.00;55.45;103174.03;6088875;19;20010;-73
2023/05/18 06:56:18;;;;;;;8.27;3.85;;;;;;;12.05;54.45;103171.34;6093698;19;20014;-72
2023/05/18 06:58:26;;;;;;;13.10;4.03;;;;;;;12.42;54.38;103176.25;6094661;19;20003;-72
2023/05/18 07:00:33;;;;;;;10.52;3.65;;;;;;;12.29;54.12;103167.59;6089542;19;20446;-72
2023/05/18 07:02:43;;;;;;;8.00;3.38;;;;;;;12.36;54.18;103171.94;6092695;19;20579;-73
2023/05/18 07:04:48;;;;;;;8.27;3.78;;;;;;;12.68;53.92;103171.56;6080065;19;20023;-72
2023/05/18 07:06:55;;;;;;;9.52;3.83;;;;;;;12.70;52.19;103167.13;6090483;19;20379;-72
2023/05/18 07:09:00;;;;;;;11.27;3.90;;;;;;;12.65;51.92;103178.63;6091291;19;20035;-73
2023/05/18 07:11:06;;;;;;;11.45;4.00;;;;;;;12.81;52.87;103182.84;6090666;19;20018;-73
2023/05/18 07:13:11;;;;;;;11.30;4.22;;;;;;;12.77;52.45;103186.41;6089218;19;20015;-72
2023/05/18 07:15:18;;;;;;;10.65;3.72;;;;;;;12.41;52.21;103169.25;6092457;19;20018;-73
2023/05/18 07:17:26;;;;;;;6.93;3.08;;;;;;;11.93;53.10;103175.00;6091089;19;20051;-73
2023/05/18 07:19:34;;;;;;;8.38;3.58;;;;;;;11.83;52.92;103173.28;6088976;19;20355;-73
2023/05/18 07:21:41;;;;;;;9.50;3.58;;;;;;;11.94;53.43;103181.13;6090970;19;20042;-72
2023/05/18 07:23:47;;;;;;;10.95;3.70;;;;;;;11.94;53.62;103183.75;6093900;19;20011;-72
2023/05/18 07:25:54;;;;;;;11.18;3.97;;;;;;;11.80;53.63;103187.34;6098746;19;20034;-72
2023/05/18 07:28:00;;;;;;;9.85;3.63;;;;;;;11.96;53.72;103184.63;6098026;19;20099;-73
2023/05/18 07:30:06;;;;;;;12.50;4.50;;;;;;;12.08;53.25;103182.75;6096365;19;20016;-72
2023/05/18 07:32:11;;;;;;;11.00;3.53;;;;;;;11.98;53.27;103182.81;6094912;19;20365;-72
2023/05/18 07:34:16;;;;;;;11.05;3.90;;;;;;;11.80;53.37;103179.44;6094381;19;20499;-72
2023/05/18 07:36:27;;;;;;;11.82;4.43;;;;;;;11.98;53.41;103185.47;6094539;19;20385;-72
2023/05/18 07:38:32;;;;;;;12.25;4.15;;;;;;;12.26;52.74;103189.59;6093749;19;20351;-73
2023/05/18 07:40:37;;;;;;;13.15;4.22;;;;;;;12.56;52.31;103187.53;6094725;19;20305;-72
2023/05/18 07:42:43;;;;;;;13.65;3.95;;;;;;;12.76;52.05;103184.66;6089021;19;20010;-73
2023/05/18 07:44:48;;;;;;;9.80;3.70;;;;;;;13.09;50.59;103193.06;6092092;19;20022;-72
2023/05/18 07:46:53;;;;;;;14.75;4.30;;;;;;;13.01;50.84;103195.78;6095708;19;20018;-73
2023/05/18 07:48:59;;;;;;;16.10;5.13;;;;;;;13.05;50.49;103196.63;6090103;19;20086;-72
2023/05/18 07:51:04;;;;;;;10.98;3.83;;;;;;;13.50;49.79;103186.31;6098654;19;20343;-73
2023/05/18 07:53:12;;;;;;;10.75;3.95;;;;;;;13.42;48.84;103186.44;6087317;19;20075;-72
2023/05/18 07:55:17;;;;;;;12.18;3.65;;;;;;;13.61;49.46;103189.66;6095926;19;20010;-73
2023/05/18 07:57:23;;;;;;;14.35;3.80;;;;;;;13.67;48.91;103186.94;6091391;19;20614;-73
2023/05/18 07:59:33;;;;;;;10.75;3.70;;;;;;;13.20;48.62;103204.34;6091265;19;20003;-73
2023/05/18 08:01:44;;;;;;;11.07;3.63;;;;;;;13.05;49.53;103196.63;6089219;19;20011;-72
2023/05/18 08:03:49;;;;;;;11.82;4.00;;;;;;;13.32;49.17;103190.09;6098552;19;20006;-74
2023/05/18 08:05:55;;;;;;;12.77;4.50;;;;;;;13.30;49.10;103186.63;6097107;19;20010;-74
2023/05/18 08:08:01;;;;;;;10.05;3.92;;;;;;;13.13;49.23;103192.97;6097894;19;20126;-74
2023/05/18 08:10:14;;;;;;;12.43;4.15;;;;;;;13.24;49.58;103184.91;6102247;19;20082;-74
2023/05/18 08:12:20;;;;;;;12.93;4.35;;;;;;;13.00;49.60;103193.16;6102246;19;20658;-75
2023/05/18 08:14:25;;;;;;;13.38;4.40;;;;;;;12.91;49.68;103189.75;6098719;19;20010;-77
2023/05/18 08:16:33;;;;;;;13.23;4.45;;;;;;;12.74;49.73;103183.78;6099201;19;20013;-76
2023/05/18 08:18:41;;;;;;;13.32;4.25;;;;;;;12.84;49.55;103192.47;6097089;19;20428;-75
2023/05/18 08:20:52;;;;;;;12.18;4.10;;;;;;;12.87;49.40;103192.44;6095957;19;20031;-77
2023/05/18 08:22:58;;;;;;;16.83;4.43;;;;;;;12.80;49.68;103189.03;6102262;19;20353;-78
2023/05/18 08:25:03;;;;;;;11.93;4.78;;;;;;;13.14;49.24;103192.09;6108960;19;20015;-79
2023/05/18 08:27:11;;;;;;;12.57;6.22;;;;;;;12.93;49.50;103187.97;6112102;19;20010;-78
2023/05/18 08:29:16;;;;;;;10.20;4.50;;;;;;;12.69;49.88;103190.88;6109410;19;20021;-77
2023/05/18 08:31:27;;;;;;;11.07;3.95;;;;;;;13.02;49.91;103186.97;6110209;19;20738;-78
2023/05/18 08:33:32;;;;;;;11.73;4.28;;;;;;;13.31;49.60;103191.00;6110667;19;20029;-78
2023/05/18 08:35:38;;;;;;;13.43;4.93;;;;;;;13.47;48.48;103187.25;6112054;19;20034;-77
2023/05/18 08:37:45;;;;;;;10.07;4.05;;;;;;;13.16;47.60;103187.66;6110830;19;20364;-78
2023/05/18 08:39:51;;;;;;;13.70;4.32;;;;;;;13.42;48.20;103178.50;6109715;19;20352;-77
2023/05/18 08:42:02;;;;;;;8.05;4.05;;;;;;;13.92;48.02;103178.59;6109297;19;20752;-76
2023/05/18 08:44:17;;;;;;;10.00;4.25;;;;;;;13.80;47.02;103180.56;6107001;19;20081;-77
2023/05/18 08:46:26;;;;;;;15.82;5.47;;;;;;;13.68;47.51;103182.53;6106129;19;20010;-77
2023/05/18 08:48:34;;;;;;;14.43;4.30;;;;;;;13.76;47.19;103189.44;6100015;19;20007;-77
2023/05/18 08:50:44;;;;;;;14.68;4.60;;;;;;;13.79;47.08;103180.56;6102469;19;20007;-78
2023/05/18 08:52:51;;;;;;;17.05;5.22;;;;;;;14.00;46.62;103185.50;6098230;19;20586;-77
2023/05/18 08:54:58;;;;;;;12.27;4.38;;;;;;;14.24;45.56;103180.66;6101692;19;20010;-77
2023/05/18 08:57:06;;;;;;;12.13;3.97;;;;;;;14.49;45.35;103176.66;6098373;19;20488;-77
2023/05/18 08:59:16;;;;;;;17.42;4.57;;;;;;;15.26;45.08;103176.84;6098378;19;20506;-77
2023/05/18 09:01:27;;;;;;;11.95;4.22;;;;;;;15.10;44.02;103177.19;6102393;19;20531;-77
2023/05/18 09:03:36;;;;;;;12.75;4.90;;;;;;;14.56;44.54;103182.75;6097051;19;20011;-77
2023/05/18 09:05:45;;;;;;;12.65;4.20;;;;;;;14.76;44.00;103162.94;6100391;19;20020;-77
2023/05/18 09:07:52;;;;;;;8.65;4.05;;;;;;;14.21;44.57;103167.50;6099856;19;20564;-77
2023/05/18 09:10:00;;;;;;;15.38;4.10;;;;;;;14.43;45.14;103168.00;6097278;19;20027;-77
2023/05/18 09:12:07;;;;;;;9.95;3.85;;;;;;;14.19;44.16;103175.50;6100298;19;20588;-77
2023/05/18 09:14:15;;;;;;;9.65;4.28;;;;;;;14.14;45.98;103164.13;6098029;19;20085;-78
2023/05/18 09:16:23;;;;;;;13.77;4.28;;;;;;;14.61;45.21;103156.19;6092548;19;20023;-80
2023/05/18 09:18:33;;;;;;;18.17;4.38;;;;;;;14.12;45.17;103157.13;6099930;19;20029;-77
2023/05/18 09:20:39;;;;;;;14.60;4.57;;;;;;;13.95;44.30;103158.25;6099803;19;20389;-77
2023/05/18 09:22:50;;;;;;;14.30;5.10;;;;;;;14.35;44.62;103152.28;6099004;19;20479;-77
2023/05/18 09:24:55;;;;;;;12.57;4.03;;;;;;;14.63;44.19;103154.38;6102667;19;20041;-76
2023/05/18 09:27:01;;;;;;;13.05;4.15;;;;;;;14.65;44.64;103148.16;6098044;19;20010;-76
2023/05/18 09:29:20;;;;;;;10.00;3.97;;;;;;;14.82;44.11;103134.56;6096461;19;20023;-76
2023/05/18 09:31:26;;;;;;;13.88;3.92;;;;;;;14.79;44.54;103139.91;6096779;19;20040;-77
2023/05/18 09:33:37;;;;;;;13.25;4.60;;;;;;;14.69;44.52;103144.56;6095327;19;20599;-77
2023/05/18 09:35:42;;;;;;;13.90;5.03;;;;;;;14.62;44.41;103139.41;6093466;19;20046;-77
2023/05/18 09:37:47;;;;;;;13.07;3.80;;;;;;;14.69;43.94;103147.19;6095476;19;20049;-77
2023/05/18 09:40:03;;;;;;;12.65;4.25;;;;;;;15.29;43.62;103143.19;6099523;19;20597;-77
2023/05/18 09:42:09;;;;;;;11.88;3.88;;;;;;;15.69;42.83;103149.34;6098647;19;20003;-76
2023/05/18 09:44:16;;;;;;;14.27;5.05;;;;;;;15.53;42.14;103146.16;6095363;19;20014;-76
2023/05/18 09:46:25;;;;;;;11.25;4.10;;;;;;;15.43;42.64;103145.53;6096912;19;20027;-77
2023/05/18 09:48:36;;;;;;;11.50;4.40;;;;;;;15.34;42.07;103148.41;6099437;19;20548;-76
2023/05/18 09:50:42;;;;;;;15.15;5.00;;;;;;;14.99;42.40;103141.28;6097759;19;20510;-77